createdAt,value
2022-07-29T00:00:45.935Z,59.23
2022-07-29T00:03:14.934Z,59.37
2022-07-29T00:05:43.407Z,59.70
2022-07-29T00:08:12.739Z,59.70
2022-07-29T00:10:40.670Z,59.98
2022-07-29T00:13:08.946Z,60.23
2022-07-29T00:15:36.893Z,60.22
2022-07-29T00:18:05.129Z,60.56
2022-07-29T00:20:33.211Z,60.67
2022-07-29T00:23:00.994Z,60.80
2022-07-29T00:25:28.925Z,60.90
2022-07-29T00:27:56.765Z,61.22
2022-07-29T00:30:24.735Z,61.24
2022-07-29T00:32:52.580Z,61.13
2022-07-29T00:35:38.958Z,61.46
2022-07-29T00:38:06.836Z,61.56
2022-07-29T00:40:34.609Z,61.65
2022-07-29T00:43:03.140Z,61.86
2022-07-29T00:45:31.271Z,61.87
2022-07-29T00:47:59.179Z,62.33
2022-07-29T00:50:27.622Z,62.33
2022-07-29T00:52:55.644Z,62.42
2022-07-29T00:55:23.896Z,62.59
2022-07-29T00:57:51.826Z,62.79
2022-07-29T01:00:22.975Z,62.74
2022-07-29T01:02:50.951Z,62.91
2022-07-29T01:05:20.983Z,62.74
2022-07-29T01:07:52.274Z,62.74
2022-07-29T01:10:22.262Z,62.99
2022-07-29T01:12:52.432Z,63.05
2022-07-29T01:15:20.547Z,63.15
2022-07-29T01:18:11.268Z,62.94
2022-07-29T01:21:04.685Z,62.99
2022-07-29T01:23:48.700Z,62.96
2022-07-29T01:26:31.334Z,62.98
2022-07-29T01:29:24.535Z,63.04
2022-07-29T01:32:03.114Z,63.15
2022-07-29T01:34:51.636Z,63.19
2022-07-29T01:37:38.006Z,63.18
2022-07-29T01:40:09.527Z,63.32
2022-07-29T01:42:45.554Z,63.55
2022-07-29T01:45:42.066Z,63.68
2022-07-29T01:48:28.922Z,63.84
2022-07-29T01:51:05.528Z,63.79
2022-07-29T01:54:13.330Z,63.74
2022-07-29T01:56:43.674Z,64.04
2022-07-29T01:59:12.739Z,64.23
2022-07-29T02:01:42.695Z,64.34
2022-07-29T02:04:28.849Z,64.39
2022-07-29T02:07:03.121Z,64.56
2022-07-29T02:09:32.832Z,64.64
2022-07-29T02:12:02.450Z,64.71
2022-07-29T02:14:37.451Z,64.97
2022-07-29T02:17:05.892Z,65.16
2022-07-29T02:19:34.956Z,65.26
2022-07-29T02:22:03.624Z,65.43
2022-07-29T02:24:32.319Z,66.01
2022-07-29T02:27:02.814Z,65.98
2022-07-29T02:29:33.598Z,66.21
2022-07-29T02:32:04.219Z,66.48
2022-07-29T02:34:33.528Z,66.54
2022-07-29T02:37:01.479Z,66.82
2022-07-29T02:39:30.715Z,66.94
2022-07-29T02:42:11.483Z,66.92
2022-07-29T02:44:39.661Z,66.81
2022-07-29T02:47:41.585Z,66.80
2022-07-29T02:50:24.348Z,66.73
2022-07-29T02:53:00.193Z,66.68
2022-07-29T02:55:34.877Z,66.95
2022-07-29T02:58:24.261Z,66.97
2022-07-29T03:00:54.392Z,67.12
2022-07-29T03:03:23.269Z,67.15
2022-07-29T03:05:56.261Z,67.15
2022-07-29T03:08:24.734Z,67.07
2022-07-29T03:10:53.279Z,66.83
2022-07-29T03:13:21.764Z,67.01
2022-07-29T03:15:50.657Z,66.95
2022-07-29T03:18:19.565Z,66.86
2022-07-29T03:20:47.927Z,66.74
2022-07-29T03:23:23.915Z,67.00
2022-07-29T03:25:51.916Z,67.12
2022-07-29T03:28:20.665Z,67.32
2022-07-29T03:30:50.660Z,67.27
2022-07-29T03:33:18.727Z,67.73
2022-07-29T03:35:46.629Z,68.01
2022-07-29T03:38:14.426Z,68.17
2022-07-29T03:41:02.911Z,68.25
2022-07-29T03:43:35.785Z,68.09
2022-07-29T03:46:08.418Z,68.31
2022-07-29T03:48:40.934Z,68.05
2022-07-29T03:51:08.783Z,67.90
2022-07-29T03:53:37.721Z,67.72
2022-07-29T03:56:07.747Z,67.42
2022-07-29T03:58:35.940Z,67.41
2022-07-29T04:01:04.231Z,67.37
2022-07-29T04:03:32.146Z,67.54
2022-07-29T04:06:07.099Z,67.45
2022-07-29T04:08:35.986Z,67.38
2022-07-29T04:11:05.235Z,67.11
2022-07-29T04:13:33.949Z,66.84
2022-07-29T04:16:02.950Z,67.00
2022-07-29T04:18:30.966Z,67.04
2022-07-29T04:21:23.802Z,67.01
2022-07-29T04:23:53.980Z,66.65
2022-07-29T04:26:22.111Z,66.83
2022-07-29T04:28:51.954Z,66.78
2022-07-29T04:31:23.889Z,66.92
2022-07-29T04:33:53.847Z,66.58
2022-07-29T04:36:29.560Z,66.82
2022-07-29T04:38:57.924Z,66.48
2022-07-29T04:41:33.335Z,66.61
2022-07-29T04:44:07.138Z,66.07
2022-07-29T04:46:36.501Z,66.05
2022-07-29T04:49:04.773Z,66.02
2022-07-29T04:51:32.901Z,65.84
2022-07-29T04:54:00.803Z,65.81
2022-07-29T04:56:28.769Z,65.78
2022-07-29T04:58:56.731Z,65.61
2022-07-29T05:01:24.726Z,65.43
2022-07-29T05:03:53.979Z,65.51
2022-07-29T05:06:24.813Z,65.40
2022-07-29T05:08:52.710Z,65.12
2022-07-29T05:11:22.414Z,65.01
2022-07-29T05:13:51.625Z,65.19
2022-07-29T05:16:23.017Z,64.85
2022-07-29T05:18:50.799Z,64.63
2022-07-29T05:21:18.578Z,64.49
2022-07-29T05:23:46.516Z,64.35
2022-07-29T05:26:14.406Z,64.08
2022-07-29T05:28:42.317Z,63.53
2022-07-29T05:31:10.615Z,63.14
2022-07-29T05:33:38.727Z,62.63
2022-07-29T05:36:09.291Z,62.45
2022-07-29T05:38:37.358Z,61.95
2022-07-29T05:41:06.408Z,61.42
2022-07-29T05:43:34.411Z,61.30
2022-07-29T05:46:02.258Z,61.16
2022-07-29T05:48:30.390Z,60.86
2022-07-29T05:50:58.942Z,60.67
2022-07-29T05:53:27.771Z,60.51
2022-07-29T05:55:55.832Z,60.31
2022-07-29T05:58:23.714Z,59.92
2022-07-29T06:00:51.462Z,60.19
2022-07-29T06:03:19.331Z,60.07
2022-07-29T06:05:47.243Z,59.58
2022-07-29T06:08:15.077Z,59.25
2022-07-29T06:10:43.000Z,59.14
2022-07-29T06:13:10.985Z,58.70
2022-07-29T06:15:38.968Z,58.41
2022-07-29T06:18:10.381Z,57.92
2022-07-29T06:20:38.952Z,57.61
2022-07-29T06:23:07.121Z,57.40
2022-07-29T06:25:37.872Z,56.93
2022-07-29T06:28:05.877Z,57.20
2022-07-29T06:30:33.832Z,57.13
2022-07-29T06:33:03.083Z,57.17
2022-07-29T06:35:38.454Z,56.71
2022-07-29T06:38:33.878Z,56.10
2022-07-29T06:41:01.550Z,55.48
2022-07-29T06:43:51.931Z,55.32
2022-07-29T06:46:23.491Z,55.12
2022-07-29T06:48:53.068Z,54.53
2022-07-29T06:51:23.342Z,54.29
2022-07-29T06:53:59.448Z,54.54
2022-07-29T06:56:38.477Z,54.19
2022-07-29T06:59:09.772Z,53.84
2022-07-29T07:01:39.520Z,53.54
2022-07-29T07:04:07.702Z,53.14
2022-07-29T07:06:36.009Z,53.06
2022-07-29T07:09:04.511Z,53.65
2022-07-29T07:11:32.437Z,53.28
2022-07-29T07:14:03.759Z,53.10
2022-07-29T07:16:32.774Z,52.43
2022-07-29T07:19:03.901Z,52.00
2022-07-29T07:21:31.860Z,52.17
2022-07-29T07:24:00.782Z,52.14
2022-07-29T07:26:29.289Z,52.49
2022-07-29T07:28:57.086Z,52.63
2022-07-29T07:31:24.992Z,52.17
2022-07-29T07:33:54.620Z,51.79
2022-07-29T07:36:23.293Z,51.67
2022-07-29T07:38:51.323Z,51.85
2022-07-29T07:41:19.619Z,51.68
2022-07-29T07:43:47.562Z,51.27
2022-07-29T07:46:16.144Z,51.61
2022-07-29T07:48:44.085Z,50.89
2022-07-29T07:51:12.818Z,50.84
2022-07-29T07:53:40.697Z,50.61
2022-07-29T07:56:11.434Z,50.16
2022-07-29T07:58:40.325Z,49.27
2022-07-29T08:01:10.179Z,48.94
2022-07-29T08:03:39.238Z,48.23
2022-07-29T08:06:07.422Z,48.28
2022-07-29T08:08:35.946Z,48.00
2022-07-29T08:11:09.578Z,47.85
2022-07-29T08:13:39.171Z,46.75
2022-07-29T08:16:14.342Z,46.48
2022-07-29T08:18:45.152Z,46.05
2022-07-29T08:21:15.471Z,46.05
2022-07-29T08:24:15.792Z,45.72
2022-07-29T08:26:44.910Z,45.45
2022-07-29T08:29:18.324Z,44.98
2022-07-29T08:31:48.084Z,45.13
2022-07-29T08:34:16.040Z,44.70
2022-07-29T08:36:44.034Z,45.41
2022-07-29T08:39:11.833Z,45.15
2022-07-29T08:41:41.515Z,44.56
2022-07-29T08:44:30.563Z,44.45
2022-07-29T08:47:02.747Z,44.75
2022-07-29T08:49:30.722Z,44.11
2022-07-29T08:51:59.913Z,44.24
2022-07-29T08:54:28.860Z,44.02
2022-07-29T08:56:57.190Z,44.55
2022-07-29T08:59:27.939Z,43.52
2022-07-29T09:02:01.438Z,42.98
2022-07-29T09:04:35.580Z,42.51
2022-07-29T09:07:05.468Z,41.48
2022-07-29T09:09:35.191Z,41.08
2022-07-29T09:12:07.207Z,40.09
2022-07-29T09:14:35.528Z,40.08
2022-07-29T09:17:03.514Z,40.25
2022-07-29T09:19:38.755Z,39.71
2022-07-29T09:22:29.634Z,39.76
2022-07-29T09:24:57.656Z,39.45
2022-07-29T09:27:30.233Z,38.83
2022-07-29T09:30:07.073Z,38.82
2022-07-29T09:32:55.635Z,38.53
2022-07-29T09:35:26.238Z,38.64
2022-07-29T09:37:54.193Z,38.89
2022-07-29T09:40:29.149Z,38.76
2022-07-29T09:42:58.512Z,38.75
2022-07-29T09:45:34.950Z,38.31
2022-07-29T09:48:24.032Z,38.33
2022-07-29T09:50:53.683Z,38.77
2022-07-29T09:53:35.907Z,39.18
2022-07-29T09:59:30.043Z,39.25
2022-07-29T10:01:58.480Z,39.21
2022-07-29T10:04:41.354Z,38.70
2022-07-29T10:07:10.277Z,38.49
2022-07-29T10:09:38.064Z,38.93
2022-07-29T10:12:10.267Z,38.24
2022-07-29T10:14:39.892Z,37.76
2022-07-29T10:17:09.070Z,37.69
2022-07-29T10:19:44.017Z,37.44
2022-07-29T10:22:12.430Z,37.90
2022-07-29T10:24:40.607Z,37.34
2022-07-29T10:27:10.011Z,37.06
2022-07-29T10:29:38.648Z,36.92
2022-07-29T10:32:32.637Z,36.40
2022-07-29T10:35:23.417Z,36.17
2022-07-29T10:37:56.924Z,36.71
2022-07-29T10:41:02.352Z,35.44
2022-07-29T10:43:39.506Z,35.64
2022-07-29T10:46:12.899Z,35.68
2022-07-29T10:48:59.435Z,35.89
2022-07-29T10:51:50.495Z,35.90
2022-07-29T10:54:37.220Z,35.50
2022-07-29T10:57:17.326Z,35.15
2022-07-29T11:00:10.359Z,35.69
2022-07-29T11:02:43.520Z,35.82
2022-07-29T11:05:14.363Z,35.41
2022-07-29T11:08:19.794Z,35.57
2022-07-29T11:10:50.772Z,35.34
2022-07-29T11:13:43.867Z,35.56
2022-07-29T11:16:12.041Z,35.28
2022-07-29T11:19:13.772Z,34.93
2022-07-29T11:21:55.285Z,35.48
2022-07-29T11:24:30.330Z,35.25
2022-07-29T11:27:19.786Z,34.94
2022-07-29T11:30:05.403Z,34.86
2022-07-29T11:32:44.774Z,35.15
2022-07-29T11:35:37.467Z,35.84
2022-07-29T11:38:29.004Z,35.01
2022-07-29T11:41:15.599Z,35.31
2022-07-29T11:43:53.706Z,35.57
2022-07-29T11:46:43.793Z,34.79
2022-07-29T11:49:13.896Z,34.52
2022-07-29T11:54:57.137Z,34.66
2022-07-29T11:57:36.642Z,34.90
2022-07-29T12:00:14.670Z,34.73
2022-07-29T12:02:48.648Z,34.95
2022-07-29T12:05:48.137Z,34.82
2022-07-29T12:08:23.923Z,34.89
2022-07-29T12:10:52.444Z,34.53
2022-07-29T12:13:22.238Z,34.09
2022-07-29T12:16:00.121Z,34.34
2022-07-29T12:18:28.344Z,34.42
2022-07-29T12:21:03.899Z,34.46
2022-07-29T12:23:35.828Z,34.34
2022-07-29T12:26:10.894Z,33.69
2022-07-29T12:28:40.054Z,33.45
2022-07-29T12:31:15.111Z,32.95
2022-07-29T12:34:03.202Z,32.90
2022-07-29T12:36:31.105Z,33.17
2022-07-29T12:38:59.045Z,33.18
2022-07-29T12:41:29.644Z,33.39
2022-07-29T12:43:57.676Z,33.57
2022-07-29T12:46:25.801Z,33.20
2022-07-29T12:48:59.858Z,33.65
2022-07-29T12:51:37.194Z,34.01
2022-07-29T12:54:04.992Z,33.61
2022-07-29T12:56:42.603Z,33.58
2022-07-29T12:59:23.183Z,33.49
2022-07-29T13:01:54.099Z,33.19
2022-07-29T13:04:30.039Z,32.85
2022-07-29T13:07:08.585Z,32.89
2022-07-29T13:09:41.148Z,33.14
2022-07-29T13:12:11.276Z,33.81
2022-07-29T13:14:45.187Z,34.05
2022-07-29T13:17:18.799Z,33.65
2022-07-29T13:19:52.090Z,33.20
2022-07-29T13:22:24.986Z,33.25
2022-07-29T13:24:57.239Z,33.30
2022-07-29T13:27:27.345Z,33.09
2022-07-29T13:30:01.716Z,33.22
2022-07-29T13:32:31.290Z,33.80
2022-07-29T13:35:05.105Z,33.45
2022-07-29T13:37:36.182Z,33.05
2022-07-29T13:40:04.554Z,33.46
2022-07-29T13:42:33.798Z,33.30
2022-07-29T13:45:02.251Z,32.59
2022-07-29T13:47:32.487Z,32.67
2022-07-29T13:50:06.636Z,32.29
2022-07-29T13:52:35.824Z,32.66
2022-07-29T13:55:05.547Z,32.51
2022-07-29T13:57:33.687Z,32.64
2022-07-29T14:00:04.156Z,32.60
2022-07-29T14:02:40.998Z,33.00
2022-07-29T14:05:12.776Z,33.56
2022-07-29T14:07:41.006Z,32.61
2022-07-29T14:10:10.864Z,32.76
2022-07-29T14:12:39.471Z,32.15
2022-07-29T14:15:10.488Z,31.73
2022-07-29T14:17:38.596Z,31.01
2022-07-29T14:20:07.092Z,31.46
2022-07-29T14:22:38.946Z,31.59
2022-07-29T14:25:14.722Z,31.81
2022-07-29T14:27:44.855Z,31.97
2022-07-29T14:30:13.259Z,31.95
2022-07-29T14:32:41.581Z,32.78
2022-07-29T14:35:09.922Z,32.41
2022-07-29T14:37:40.493Z,32.35
2022-07-29T14:40:10.553Z,32.60
2022-07-29T14:42:39.612Z,32.72
2022-07-29T14:45:08.535Z,32.95
2022-07-29T14:47:36.824Z,33.24
2022-07-29T14:50:06.303Z,33.25
2022-07-29T14:52:34.156Z,33.88
2022-07-29T14:55:02.284Z,33.98
2022-07-29T14:57:30.092Z,34.19
2022-07-29T14:59:58.236Z,34.18
2022-07-29T15:02:45.851Z,33.64
2022-07-29T15:05:14.518Z,33.73
2022-07-29T15:07:42.345Z,34.14
2022-07-29T15:10:10.701Z,34.64
2022-07-29T15:12:42.588Z,34.71
2022-07-29T15:15:11.098Z,35.11
2022-07-29T15:17:39.040Z,35.14
2022-07-29T15:20:07.443Z,35.14
2022-07-29T15:22:38.354Z,35.17
2022-07-29T15:25:11.722Z,35.28
2022-07-29T15:27:41.492Z,35.17
2022-07-29T15:30:32.558Z,35.54
2022-07-29T15:33:11.137Z,35.93
2022-07-29T15:35:40.351Z,36.40
2022-07-29T15:38:16.032Z,36.09
2022-07-29T15:40:45.721Z,35.43
2022-07-29T15:43:14.093Z,35.64
2022-07-29T15:46:04.315Z,35.59
2022-07-29T15:48:32.703Z,35.74
2022-07-29T15:51:01.295Z,35.84
2022-07-29T15:53:30.050Z,35.86
2022-07-29T15:55:58.354Z,35.88
2022-07-29T15:58:26.249Z,35.87
2022-07-29T16:00:56.613Z,36.13
2022-07-29T16:03:24.963Z,35.82
2022-07-29T16:05:53.019Z,35.85
2022-07-29T16:08:21.030Z,35.75
2022-07-29T16:10:48.941Z,35.76
2022-07-29T16:13:17.075Z,35.93
2022-07-29T16:16:02.255Z,35.62
2022-07-29T16:18:32.270Z,35.63
2022-07-29T16:21:00.270Z,35.33
2022-07-29T16:23:28.216Z,35.51
2022-07-29T16:26:00.803Z,35.54
2022-07-29T16:28:31.013Z,35.44
2022-07-29T16:30:59.360Z,35.38
2022-07-29T16:33:54.767Z,35.40
2022-07-29T16:36:18.441Z,35.53
2022-07-29T16:38:47.548Z,35.43
2022-07-29T16:41:15.608Z,35.34
2022-07-29T16:43:43.558Z,35.34
2022-07-29T16:46:15.642Z,35.38
2022-07-29T16:48:50.582Z,35.24
2022-07-29T16:51:19.684Z,35.16
2022-07-29T16:53:49.861Z,34.95
2022-07-29T16:56:18.766Z,35.11
2022-07-29T16:58:46.670Z,35.25
2022-07-29T17:01:14.651Z,35.23
2022-07-29T17:04:01.511Z,35.26
2022-07-29T17:06:29.770Z,35.21
2022-07-29T17:08:57.704Z,35.21
2022-07-29T17:11:52.695Z,35.17
2022-07-29T17:14:15.119Z,35.23
2022-07-29T17:16:43.997Z,35.15
2022-07-29T17:19:31.270Z,34.93
2022-07-29T17:22:10.475Z,35.19
2022-07-29T17:24:42.937Z,35.15
2022-07-29T17:27:11.747Z,35.46
2022-07-29T17:29:39.828Z,35.55
2022-07-29T17:32:09.282Z,35.58
2022-07-29T17:34:41.971Z,35.94
2022-07-29T17:37:12.092Z,36.01
2022-07-29T17:39:43.043Z,36.33
2022-07-29T17:42:13.211Z,36.69
2022-07-29T17:44:43.508Z,37.12
2022-07-29T17:47:15.887Z,37.30
2022-07-29T17:49:45.536Z,37.50
2022-07-29T17:52:14.101Z,38.05
2022-07-29T17:54:42.550Z,37.97
2022-07-29T17:57:12.570Z,38.21
2022-07-29T17:59:41.040Z,38.16
2022-07-29T18:02:10.264Z,38.01
2022-07-29T18:04:39.329Z,38.01
2022-07-29T18:07:10.599Z,38.39
2022-07-29T18:09:44.014Z,38.41
2022-07-29T18:12:18.802Z,38.64
2022-07-29T18:14:49.783Z,38.74
2022-07-29T18:17:51.907Z,38.98
2022-07-29T18:23:57.438Z,39.45
2022-07-29T18:29:35.943Z,39.50
2022-07-29T18:32:04.244Z,39.88
2022-07-29T18:34:32.426Z,40.37
2022-07-29T18:37:01.407Z,40.19
2022-07-29T18:39:29.596Z,40.32
2022-07-29T18:41:57.511Z,40.40
2022-07-29T18:44:25.197Z,40.46
2022-07-29T18:46:53.306Z,40.74
2022-07-29T18:49:23.150Z,40.81
2022-07-29T18:51:52.466Z,40.95
2022-07-29T18:54:20.398Z,41.03
2022-07-29T18:56:48.498Z,41.47
2022-07-29T18:59:20.779Z,41.56
2022-07-29T19:01:49.164Z,41.52
2022-07-29T19:04:17.805Z,41.86
2022-07-29T19:06:45.906Z,41.83
2022-07-29T19:09:49.201Z,41.94
2022-07-29T19:12:20.185Z,41.91
2022-07-29T19:14:48.059Z,41.88
2022-07-29T19:17:17.297Z,41.63
2022-07-29T19:19:57.470Z,41.56
2022-07-29T19:22:25.437Z,41.43
2022-07-29T19:24:53.600Z,41.54
2022-07-29T19:27:21.576Z,41.59
2022-07-29T19:29:49.688Z,41.69
2022-07-29T19:32:25.374Z,41.88
2022-07-29T19:35:15.254Z,42.01
2022-07-29T19:37:43.735Z,42.13
2022-07-29T19:40:12.816Z,42.15
2022-07-29T19:42:40.825Z,42.28
2022-07-29T19:45:09.239Z,42.46
2022-07-29T19:47:37.346Z,42.36
2022-07-29T19:50:05.717Z,42.43
2022-07-29T19:52:33.737Z,42.47
2022-07-29T19:55:07.065Z,42.45
2022-07-29T19:57:41.183Z,42.66
2022-07-29T20:00:18.378Z,42.97
2022-07-29T20:02:52.058Z,43.06
2022-07-29T20:05:20.168Z,43.10
2022-07-29T20:07:49.194Z,42.97
2022-07-29T20:10:41.840Z,43.12
2022-07-29T20:13:09.906Z,43.31
2022-07-29T20:16:27.958Z,43.28
2022-07-29T20:19:21.877Z,43.24
2022-07-29T20:21:51.517Z,43.67
2022-07-29T20:24:45.104Z,43.52
2022-07-29T20:27:40.972Z,43.85
2022-07-29T20:30:09.934Z,43.83
2022-07-29T20:32:40.399Z,43.79
2022-07-29T20:35:12.356Z,44.13
2022-07-29T20:38:07.121Z,43.97
2022-07-29T20:40:37.663Z,44.17
2022-07-29T20:43:06.052Z,44.35
2022-07-29T20:45:35.555Z,44.33
2022-07-29T20:48:03.426Z,44.59
2022-07-29T20:50:31.318Z,44.50
2022-07-29T20:53:01.030Z,44.37
2022-07-29T20:55:53.886Z,44.76
2022-07-29T20:58:21.719Z,44.46
2022-07-29T21:00:52.799Z,44.58
2022-07-29T21:03:20.529Z,44.92
2022-07-29T21:05:48.479Z,45.12
2022-07-29T21:08:16.444Z,45.23
2022-07-29T21:10:44.292Z,44.85
2022-07-29T21:13:12.587Z,45.00
2022-07-29T21:16:14.903Z,45.16
2022-07-29T21:19:18.144Z,45.22
2022-07-29T21:21:36.279Z,45.15
2022-07-29T21:24:29.892Z,45.19
2022-07-29T21:27:21.357Z,45.13
2022-07-29T21:29:49.665Z,45.36
2022-07-29T21:32:29.764Z,45.66
2022-07-29T21:34:58.346Z,45.58
2022-07-29T21:37:28.286Z,45.56
2022-07-29T21:39:56.171Z,45.39
2022-07-29T21:42:30.027Z,45.83
2022-07-29T21:44:58.180Z,45.75
2022-07-29T21:47:31.932Z,45.62
2022-07-29T21:50:02.498Z,45.50
2022-07-29T21:52:30.940Z,45.60
2022-07-29T21:54:59.393Z,45.63
2022-07-29T21:57:27.072Z,45.70
2022-07-29T21:59:57.528Z,45.83
2022-07-29T22:02:27.636Z,45.92
2022-07-29T22:04:55.442Z,46.04
2022-07-29T22:07:23.229Z,46.30
2022-07-29T22:09:50.959Z,46.46
2022-07-29T22:12:18.817Z,46.24
2022-07-29T22:14:46.649Z,46.37
2022-07-29T22:17:14.811Z,46.66
2022-07-29T22:19:42.818Z,46.48
2022-07-29T22:22:15.658Z,46.54
2022-07-29T22:24:43.702Z,46.44
2022-07-29T22:27:11.951Z,46.76
2022-07-29T22:29:40.048Z,46.82
2022-07-29T22:32:07.799Z,46.94
2022-07-29T22:34:37.834Z,46.91
2022-07-29T22:37:06.058Z,46.88
2022-07-29T22:39:33.891Z,47.20
2022-07-29T22:42:01.646Z,47.08
2022-07-29T22:44:29.548Z,46.95
2022-07-29T22:46:57.796Z,47.47
2022-07-29T22:49:26.027Z,47.54
2022-07-29T22:51:53.796Z,47.42
2022-07-29T22:54:22.102Z,47.61
2022-07-29T22:56:49.962Z,47.34
2022-07-29T22:59:17.831Z,47.51
2022-07-29T23:01:45.916Z,47.56
2022-07-29T23:04:13.675Z,47.37
2022-07-29T23:06:41.419Z,47.40
2022-07-29T23:09:12.071Z,47.50
2022-07-29T23:11:39.951Z,47.48
2022-07-29T23:14:09.628Z,47.47
2022-07-29T23:16:37.617Z,47.35
2022-07-29T23:19:05.301Z,47.41
2022-07-29T23:21:33.269Z,47.42
2022-07-29T23:24:01.064Z,47.29
2022-07-29T23:26:28.910Z,46.94
2022-07-29T23:28:56.654Z,47.35
2022-07-29T23:31:24.527Z,47.40
2022-07-29T23:33:52.256Z,47.34
2022-07-29T23:36:21.051Z,47.25
2022-07-29T23:38:49.007Z,47.58
2022-07-29T23:41:16.737Z,47.53
2022-07-29T23:43:44.496Z,47.49
2022-07-29T23:46:12.322Z,47.63
2022-07-29T23:48:43.253Z,47.75
2022-07-29T23:51:10.932Z,47.38
2022-07-29T23:53:39.006Z,47.74
2022-07-29T23:56:22.409Z,47.92
2022-07-29T23:58:50.393Z,47.92
